sensor_id;sensor_type;location;lat;lon;timestamp;temperature;humidity
69715;HTU21D;56981;53.532;49.398;2023-12-20T00:00:08;0.30;100.55
69715;HTU21D;56981;53.532;49.398;2023-12-20T00:02:35;0.31;100.70
69715;HTU21D;56981;53.532;49.398;2023-12-20T00:05:01;0.30;100.70
69715;HTU21D;56981;53.532;49.398;2023-12-20T00:07:27;0.23;100.80
69715;HTU21D;56981;53.532;49.398;2023-12-20T00:09:53;0.22;100.93
69715;HTU21D;56981;53.532;49.398;2023-12-20T00:12:19;0.24;101.07
69715;HTU21D;56981;53.532;49.398;2023-12-20T00:14:45;0.27;101.17
69715;HTU21D;56981;53.532;49.398;2023-12-20T00:17:11;0.33;101.25
69715;HTU21D;56981;53.532;49.398;2023-12-20T00:19:37;0.33;101.36
69715;HTU21D;56981;53.532;49.398;2023-12-20T00:22:03;0.38;101.48
69715;HTU21D;56981;53.532;49.398;2023-12-20T00:24:29;0.37;101.44
69715;HTU21D;56981;53.532;49.398;2023-12-20T00:26:55;0.38;101.48
69715;HTU21D;56981;53.532;49.398;2023-12-20T00:29:21;0.36;101.43
69715;HTU21D;56981;53.532;49.398;2023-12-20T00:31:48;0.39;101.54
69715;HTU21D;56981;53.532;49.398;2023-12-20T00:34:14;0.36;101.48
69715;HTU21D;56981;53.532;49.398;2023-12-20T00:36:40;0.37;101.54
69715;HTU21D;56981;53.532;49.398;2023-12-20T00:39:06;0.38;101.58
69715;HTU21D;56981;53.532;49.398;2023-12-20T00:41:32;0.44;101.60
69715;HTU21D;56981;53.532;49.398;2023-12-20T00:43:59;0.46;101.60
69715;HTU21D;56981;53.532;49.398;2023-12-20T00:46:25;0.44;101.52
69715;HTU21D;56981;53.532;49.398;2023-12-20T00:48:51;0.44;101.51
69715;HTU21D;56981;53.532;49.398;2023-12-20T00:51:17;0.42;101.52
69715;HTU21D;56981;53.532;49.398;2023-12-20T00:53:43;0.48;101.57
69715;HTU21D;56981;53.532;49.398;2023-12-20T00:56:09;0.50;101.57
69715;HTU21D;56981;53.532;49.398;2023-12-20T00:58:35;0.51;101.57
69715;HTU21D;56981;53.532;49.398;2023-12-20T01:01:02;0.54;101.57
69715;HTU21D;56981;53.532;49.398;2023-12-20T01:03:29;0.55;101.52
69715;HTU21D;56981;53.532;49.398;2023-12-20T01:05:55;0.54;101.46
69715;HTU21D;56981;53.532;49.398;2023-12-20T01:08:21;0.54;101.44
69715;HTU21D;56981;53.532;49.398;2023-12-20T01:10:48;0.51;101.40
69715;HTU21D;56981;53.532;49.398;2023-12-20T01:13:14;0.50;101.44
69715;HTU21D;56981;53.532;49.398;2023-12-20T01:15:40;0.53;101.52
69715;HTU21D;56981;53.532;49.398;2023-12-20T01:18:06;0.55;101.48
69715;HTU21D;56981;53.532;49.398;2023-12-20T01:20:32;0.58;101.49
69715;HTU21D;56981;53.532;49.398;2023-12-20T01:22:58;0.61;101.59
69715;HTU21D;56981;53.532;49.398;2023-12-20T01:25:24;0.61;101.51
69715;HTU21D;56981;53.532;49.398;2023-12-20T01:27:50;0.64;101.52
69715;HTU21D;56981;53.532;49.398;2023-12-20T01:30:16;0.65;101.54
69715;HTU21D;56981;53.532;49.398;2023-12-20T01:32:43;0.66;101.50
69715;HTU21D;56981;53.532;49.398;2023-12-20T01:35:09;0.67;101.46
69715;HTU21D;56981;53.532;49.398;2023-12-20T01:37:35;0.67;101.41
69715;HTU21D;56981;53.532;49.398;2023-12-20T01:40:01;0.68;101.35
69715;HTU21D;56981;53.532;49.398;2023-12-20T01:42:30;0.71;101.31
69715;HTU21D;56981;53.532;49.398;2023-12-20T01:44:57;0.72;101.29
69715;HTU21D;56981;53.532;49.398;2023-12-20T01:47:23;0.75;101.22
69715;HTU21D;56981;53.532;49.398;2023-12-20T01:49:50;0.81;101.24
69715;HTU21D;56981;53.532;49.398;2023-12-20T01:52:16;0.79;100.99
69715;HTU21D;56981;53.532;49.398;2023-12-20T01:54:43;0.78;100.89
69715;HTU21D;56981;53.532;49.398;2023-12-20T01:57:10;0.82;100.74
69715;HTU21D;56981;53.532;49.398;2023-12-20T01:59:37;0.81;100.57
69715;HTU21D;56981;53.532;49.398;2023-12-20T02:02:05;0.81;100.41
69715;HTU21D;56981;53.532;49.398;2023-12-20T02:04:32;0.81;100.16
69715;HTU21D;56981;53.532;49.398;2023-12-20T02:06:59;0.83;99.74
69715;HTU21D;56981;53.532;49.398;2023-12-20T02:09:25;0.86;99.30
69715;HTU21D;56981;53.532;49.398;2023-12-20T02:11:54;0.90;98.99
69715;HTU21D;56981;53.532;49.398;2023-12-20T02:14:20;0.90;98.37
69715;HTU21D;56981;53.532;49.398;2023-12-20T02:16:47;0.93;97.79
69715;HTU21D;56981;53.532;49.398;2023-12-20T02:19:14;0.92;97.07
69715;HTU21D;56981;53.532;49.398;2023-12-20T02:21:41;0.92;96.71
69715;HTU21D;56981;53.532;49.398;2023-12-20T02:24:07;0.90;96.42
69715;HTU21D;56981;53.532;49.398;2023-12-20T02:26:34;0.92;95.93
69715;HTU21D;56981;53.532;49.398;2023-12-20T02:29:01;0.92;96.33
69715;HTU21D;56981;53.532;49.398;2023-12-20T02:31:28;0.91;95.92
69715;HTU21D;56981;53.532;49.398;2023-12-20T02:33:54;0.94;95.95
69715;HTU21D;56981;53.532;49.398;2023-12-20T02:36:20;0.95;95.72
69715;HTU21D;56981;53.532;49.398;2023-12-20T02:38:47;0.97;95.39
69715;HTU21D;56981;53.532;49.398;2023-12-20T02:41:14;0.95;95.16
69715;HTU21D;56981;53.532;49.398;2023-12-20T02:43:42;0.97;95.83
69715;HTU21D;56981;53.532;49.398;2023-12-20T02:46:09;0.97;95.88
69715;HTU21D;56981;53.532;49.398;2023-12-20T02:48:35;0.99;96.16
69715;HTU21D;56981;53.532;49.398;2023-12-20T02:51:02;1.02;96.04
69715;HTU21D;56981;53.532;49.398;2023-12-20T02:53:28;1.01;95.78
69715;HTU21D;56981;53.532;49.398;2023-12-20T02:55:54;1.05;95.85
69715;HTU21D;56981;53.532;49.398;2023-12-20T02:58:21;1.07;95.56
69715;HTU21D;56981;53.532;49.398;2023-12-20T03:00:47;1.09;95.30
69715;HTU21D;56981;53.532;49.398;2023-12-20T03:03:14;1.12;95.28
69715;HTU21D;56981;53.532;49.398;2023-12-20T03:05:40;1.14;94.72
69715;HTU21D;56981;53.532;49.398;2023-12-20T03:08:07;1.17;94.99
69715;HTU21D;56981;53.532;49.398;2023-12-20T03:10:33;1.12;94.85
69715;HTU21D;56981;53.532;49.398;2023-12-20T03:12:59;1.14;94.75
69715;HTU21D;56981;53.532;49.398;2023-12-20T03:15:26;1.17;94.68
69715;HTU21D;56981;53.532;49.398;2023-12-20T03:17:52;1.18;94.65
69715;HTU21D;56981;53.532;49.398;2023-12-20T03:20:20;1.22;94.75
69715;HTU21D;56981;53.532;49.398;2023-12-20T03:22:46;1.24;94.46
69715;HTU21D;56981;53.532;49.398;2023-12-20T03:25:12;1.29;94.41
69715;HTU21D;56981;53.532;49.398;2023-12-20T03:27:38;1.28;94.19
69715;HTU21D;56981;53.532;49.398;2023-12-20T03:30:05;1.28;94.48
69715;HTU21D;56981;53.532;49.398;2023-12-20T03:32:32;1.31;94.47
69715;HTU21D;56981;53.532;49.398;2023-12-20T03:34:58;1.33;94.39
69715;HTU21D;56981;53.532;49.398;2023-12-20T03:37:24;1.29;94.40
69715;HTU21D;56981;53.532;49.398;2023-12-20T03:39:51;1.33;94.67
69715;HTU21D;56981;53.532;49.398;2023-12-20T03:42:17;1.38;94.64
69715;HTU21D;56981;53.532;49.398;2023-12-20T03:44:43;1.45;94.61
69715;HTU21D;56981;53.532;49.398;2023-12-20T03:47:09;1.42;93.98
69715;HTU21D;56981;53.532;49.398;2023-12-20T03:49:36;1.42;94.02
69715;HTU21D;56981;53.532;49.398;2023-12-20T03:52:05;1.42;94.20
69715;HTU21D;56981;53.532;49.398;2023-12-20T03:54:31;1.45;94.36
69715;HTU21D;56981;53.532;49.398;2023-12-20T03:56:57;1.47;94.27
69715;HTU21D;56981;53.532;49.398;2023-12-20T03:59:24;1.49;94.18
69715;HTU21D;56981;53.532;49.398;2023-12-20T04:01:50;1.49;94.11
69715;HTU21D;56981;53.532;49.398;2023-12-20T04:04:17;1.49;94.00
69715;HTU21D;56981;53.532;49.398;2023-12-20T04:06:43;1.53;94.17
69715;HTU21D;56981;53.532;49.398;2023-12-20T04:09:10;1.52;94.16
69715;HTU21D;56981;53.532;49.398;2023-12-20T04:11:39;1.54;94.15
69715;HTU21D;56981;53.532;49.398;2023-12-20T04:14:09;1.56;94.23
69715;HTU21D;56981;53.532;49.398;2023-12-20T04:16:36;1.57;94.16
69715;HTU21D;56981;53.532;49.398;2023-12-20T04:19:03;1.60;94.36
69715;HTU21D;56981;53.532;49.398;2023-12-20T04:21:29;1.62;94.41
69715;HTU21D;56981;53.532;49.398;2023-12-20T04:23:55;1.62;94.15
69715;HTU21D;56981;53.532;49.398;2023-12-20T04:26:22;1.58;94.24
69715;HTU21D;56981;53.532;49.398;2023-12-20T04:28:48;1.56;94.69
69715;HTU21D;56981;53.532;49.398;2023-12-20T04:31:15;1.55;94.87
69715;HTU21D;56981;53.532;49.398;2023-12-20T04:33:41;1.54;95.26
69715;HTU21D;56981;53.532;49.398;2023-12-20T04:36:07;1.55;95.28
69715;HTU21D;56981;53.532;49.398;2023-12-20T04:38:35;1.53;95.26
69715;HTU21D;56981;53.532;49.398;2023-12-20T04:41:01;1.55;95.28
69715;HTU21D;56981;53.532;49.398;2023-12-20T04:43:28;1.56;95.26
69715;HTU21D;56981;53.532;49.398;2023-12-20T04:45:55;1.55;94.97
69715;HTU21D;56981;53.532;49.398;2023-12-20T04:48:22;1.56;95.14
69715;HTU21D;56981;53.532;49.398;2023-12-20T04:50:48;1.60;95.23
69715;HTU21D;56981;53.532;49.398;2023-12-20T04:53:14;1.61;94.98
69715;HTU21D;56981;53.532;49.398;2023-12-20T04:55:40;1.61;95.24
69715;HTU21D;56981;53.532;49.398;2023-12-20T04:58:07;1.61;95.08
69715;HTU21D;56981;53.532;49.398;2023-12-20T05:00:33;1.62;95.52
69715;HTU21D;56981;53.532;49.398;2023-12-20T05:02:59;1.62;95.45
69715;HTU21D;56981;53.532;49.398;2023-12-20T05:05:26;1.64;95.30
69715;HTU21D;56981;53.532;49.398;2023-12-20T05:07:53;1.56;95.59
69715;HTU21D;56981;53.532;49.398;2023-12-20T05:10:19;1.55;95.77
69715;HTU21D;56981;53.532;49.398;2023-12-20T05:12:45;1.56;95.97
69715;HTU21D;56981;53.532;49.398;2023-12-20T05:15:12;1.60;95.63
69715;HTU21D;56981;53.532;49.398;2023-12-20T05:17:38;1.56;95.49
69715;HTU21D;56981;53.532;49.398;2023-12-20T05:20:05;1.57;95.59
69715;HTU21D;56981;53.532;49.398;2023-12-20T05:22:32;1.55;95.59
69715;HTU21D;56981;53.532;49.398;2023-12-20T05:24:59;1.56;95.67
69715;HTU21D;56981;53.532;49.398;2023-12-20T05:27:25;1.61;95.49
69715;HTU21D;56981;53.532;49.398;2023-12-20T05:29:52;1.57;95.49
69715;HTU21D;56981;53.532;49.398;2023-12-20T05:32:18;1.61;95.27
69715;HTU21D;56981;53.532;49.398;2023-12-20T05:34:44;1.56;95.45
69715;HTU21D;56981;53.532;49.398;2023-12-20T05:37:10;1.60;95.55
69715;HTU21D;56981;53.532;49.398;2023-12-20T05:39:37;1.63;95.61
69715;HTU21D;56981;53.532;49.398;2023-12-20T05:42:03;1.65;95.41
69715;HTU21D;56981;53.532;49.398;2023-12-20T05:44:30;1.66;95.65
69715;HTU21D;56981;53.532;49.398;2023-12-20T05:46:57;1.70;95.48
69715;HTU21D;56981;53.532;49.398;2023-12-20T05:49:23;1.70;95.28
69715;HTU21D;56981;53.532;49.398;2023-12-20T05:51:49;1.75;95.32
69715;HTU21D;56981;53.532;49.398;2023-12-20T05:54:17;1.77;95.01
69715;HTU21D;56981;53.532;49.398;2023-12-20T05:56:43;1.77;94.95
69715;HTU21D;56981;53.532;49.398;2023-12-20T05:59:09;1.81;95.07
69715;HTU21D;56981;53.532;49.398;2023-12-20T06:01:35;1.82;94.62
69715;HTU21D;56981;53.532;49.398;2023-12-20T06:04:02;1.81;94.44
69715;HTU21D;56981;53.532;49.398;2023-12-20T06:06:29;1.83;94.67
69715;HTU21D;56981;53.532;49.398;2023-12-20T06:08:56;1.86;94.73
69715;HTU21D;56981;53.532;49.398;2023-12-20T06:11:22;1.90;94.72
69715;HTU21D;56981;53.532;49.398;2023-12-20T06:13:48;1.94;94.73
69715;HTU21D;56981;53.532;49.398;2023-12-20T06:16:14;1.92;94.36
69715;HTU21D;56981;53.532;49.398;2023-12-20T06:18:40;1.98;94.43
69715;HTU21D;56981;53.532;49.398;2023-12-20T06:21:06;2.03;94.32
69715;HTU21D;56981;53.532;49.398;2023-12-20T06:23:33;2.10;94.14
69715;HTU21D;56981;53.532;49.398;2023-12-20T06:25:59;2.13;93.53
69715;HTU21D;56981;53.532;49.398;2023-12-20T06:28:26;2.16;93.49
69715;HTU21D;56981;53.532;49.398;2023-12-20T06:30:52;2.15;93.39
69715;HTU21D;56981;53.532;49.398;2023-12-20T06:33:22;2.16;93.35
69715;HTU21D;56981;53.532;49.398;2023-12-20T06:35:49;2.21;93.24
69715;HTU21D;56981;53.532;49.398;2023-12-20T06:38:15;2.23;93.21
69715;HTU21D;56981;53.532;49.398;2023-12-20T06:40:41;2.23;93.17
69715;HTU21D;56981;53.532;49.398;2023-12-20T06:43:08;2.21;93.14
69715;HTU21D;56981;53.532;49.398;2023-12-20T06:45:34;2.23;93.09
69715;HTU21D;56981;53.532;49.398;2023-12-20T06:48:00;2.28;92.96
69715;HTU21D;56981;53.532;49.398;2023-12-20T06:50:27;2.34;92.77
69715;HTU21D;56981;53.532;49.398;2023-12-20T06:52:53;2.34;92.59
69715;HTU21D;56981;53.532;49.398;2023-12-20T06:55:19;2.36;92.79
69715;HTU21D;56981;53.532;49.398;2023-12-20T06:57:45;2.32;92.72
69715;HTU21D;56981;53.532;49.398;2023-12-20T07:00:12;2.37;92.82
69715;HTU21D;56981;53.532;49.398;2023-12-20T07:02:38;2.41;92.50
69715;HTU21D;56981;53.532;49.398;2023-12-20T07:05:05;2.46;92.49
69715;HTU21D;56981;53.532;49.398;2023-12-20T07:07:32;2.51;92.01
69715;HTU21D;56981;53.532;49.398;2023-12-20T07:09:58;2.55;92.12
69715;HTU21D;56981;53.532;49.398;2023-12-20T07:12:24;2.61;92.00
69715;HTU21D;56981;53.532;49.398;2023-12-20T07:14:50;2.62;91.25
69715;HTU21D;56981;53.532;49.398;2023-12-20T07:17:16;2.67;91.43
69715;HTU21D;56981;53.532;49.398;2023-12-20T07:19:42;2.75;91.31
69715;HTU21D;56981;53.532;49.398;2023-12-20T07:22:08;2.73;90.81
69715;HTU21D;56981;53.532;49.398;2023-12-20T07:24:34;2.72;91.37
69715;HTU21D;56981;53.532;49.398;2023-12-20T07:27:01;2.67;91.11
69715;HTU21D;56981;53.532;49.398;2023-12-20T07:29:27;2.62;91.07
69715;HTU21D;56981;53.532;49.398;2023-12-20T07:31:53;2.70;91.54
69715;HTU21D;56981;53.532;49.398;2023-12-20T07:34:23;2.67;91.08
69715;HTU21D;56981;53.532;49.398;2023-12-20T07:36:49;2.71;91.02
69715;HTU21D;56981;53.532;49.398;2023-12-20T07:39:15;2.79;90.70
69715;HTU21D;56981;53.532;49.398;2023-12-20T07:41:42;2.79;90.26
69715;HTU21D;56981;53.532;49.398;2023-12-20T07:44:08;2.82;90.62
69715;HTU21D;56981;53.532;49.398;2023-12-20T07:46:34;2.86;90.09
69715;HTU21D;56981;53.532;49.398;2023-12-20T07:49:00;2.89;90.18
69715;HTU21D;56981;53.532;49.398;2023-12-20T07:51:26;2.87;90.02
69715;HTU21D;56981;53.532;49.398;2023-12-20T07:53:52;2.96;89.54
69715;HTU21D;56981;53.532;49.398;2023-12-20T07:56:19;2.94;89.41
69715;HTU21D;56981;53.532;49.398;2023-12-20T07:58:54;2.93;89.66
69715;HTU21D;56981;53.532;49.398;2023-12-20T08:01:20;2.96;89.44
69715;HTU21D;56981;53.532;49.398;2023-12-20T08:03:48;3.03;89.54
69715;HTU21D;56981;53.532;49.398;2023-12-20T08:06:14;3.16;89.09
69715;HTU21D;56981;53.532;49.398;2023-12-20T08:08:43;3.19;88.29
69715;HTU21D;56981;53.532;49.398;2023-12-20T08:11:09;3.20;87.68
69715;HTU21D;56981;53.532;49.398;2023-12-20T08:13:35;3.32;88.06
69715;HTU21D;56981;53.532;49.398;2023-12-20T08:16:01;3.35;87.04
69715;HTU21D;56981;53.532;49.398;2023-12-20T08:18:31;3.40;86.86
69715;HTU21D;56981;53.532;49.398;2023-12-20T08:20:57;3.50;87.00
69715;HTU21D;56981;53.532;49.398;2023-12-20T08:23:23;3.55;86.66
69715;HTU21D;56981;53.532;49.398;2023-12-20T08:25:49;3.62;86.32
69715;HTU21D;56981;53.532;49.398;2023-12-20T08:28:16;3.60;86.26
69715;HTU21D;56981;53.532;49.398;2023-12-20T08:30:42;3.63;86.19
69715;HTU21D;56981;53.532;49.398;2023-12-20T08:33:08;3.56;86.36
69715;HTU21D;56981;53.532;49.398;2023-12-20T08:35:39;3.49;85.87
69715;HTU21D;56981;53.532;49.398;2023-12-20T08:38:06;3.43;86.96
69715;HTU21D;56981;53.532;49.398;2023-12-20T08:40:32;3.39;87.01
69715;HTU21D;56981;53.532;49.398;2023-12-20T08:42:58;3.40;86.76
69715;HTU21D;56981;53.532;49.398;2023-12-20T08:45:25;3.43;87.01
69715;HTU21D;56981;53.532;49.398;2023-12-20T08:47:51;3.44;86.35
69715;HTU21D;56981;53.532;49.398;2023-12-20T08:50:17;3.49;86.96
69715;HTU21D;56981;53.532;49.398;2023-12-20T08:52:44;3.34;86.83
69715;HTU21D;56981;53.532;49.398;2023-12-20T08:55:10;3.25;87.40
69715;HTU21D;56981;53.532;49.398;2023-12-20T08:57:36;3.27;87.45
69715;HTU21D;56981;53.532;49.398;2023-12-20T09:00:03;3.34;87.10
69715;HTU21D;56981;53.532;49.398;2023-12-20T09:02:32;3.40;86.86
69715;HTU21D;56981;53.532;49.398;2023-12-20T09:05:02;3.47;86.38
69715;HTU21D;56981;53.532;49.398;2023-12-20T09:07:28;3.54;86.14
69715;HTU21D;56981;53.532;49.398;2023-12-20T09:09:58;3.63;85.88
69715;HTU21D;56981;53.532;49.398;2023-12-20T09:12:28;3.73;85.42
69715;HTU21D;56981;53.532;49.398;2023-12-20T09:14:54;3.73;84.74
69715;HTU21D;56981;53.532;49.398;2023-12-20T09:17:21;3.79;85.15
69715;HTU21D;56981;53.532;49.398;2023-12-20T09:19:49;3.78;85.25
69715;HTU21D;56981;53.532;49.398;2023-12-20T09:22:15;3.82;84.79
69715;HTU21D;56981;53.532;49.398;2023-12-20T09:24:42;3.78;84.64
69715;HTU21D;56981;53.532;49.398;2023-12-20T09:27:08;3.76;85.00
69715;HTU21D;56981;53.532;49.398;2023-12-20T09:29:35;3.63;85.37
69715;HTU21D;56981;53.532;49.398;2023-12-20T09:32:01;3.68;85.65
69715;HTU21D;56981;53.532;49.398;2023-12-20T09:34:27;3.60;85.45
69715;HTU21D;56981;53.532;49.398;2023-12-20T09:36:54;3.44;86.37
69715;HTU21D;56981;53.532;49.398;2023-12-20T09:39:21;3.43;86.16
69715;HTU21D;56981;53.532;49.398;2023-12-20T09:42:09;3.31;87.19
69715;HTU21D;56981;53.532;49.398;2023-12-20T09:44:37;3.29;87.05
69715;HTU21D;56981;53.532;49.398;2023-12-20T09:47:07;3.15;87.86
69715;HTU21D;56981;53.532;49.398;2023-12-20T09:49:33;3.10;87.88
69715;HTU21D;56981;53.532;49.398;2023-12-20T09:52:00;3.09;88.14
69715;HTU21D;56981;53.532;49.398;2023-12-20T09:54:28;3.14;88.06
69715;HTU21D;56981;53.532;49.398;2023-12-20T09:56:55;3.12;88.25
69715;HTU21D;56981;53.532;49.398;2023-12-20T09:59:24;3.12;88.31
69715;HTU21D;56981;53.532;49.398;2023-12-20T10:01:52;3.12;88.45
69715;HTU21D;56981;53.532;49.398;2023-12-20T10:04:26;3.17;88.39
69715;HTU21D;56981;53.532;49.398;2023-12-20T10:07:02;3.19;88.25
69715;HTU21D;56981;53.532;49.398;2023-12-20T10:09:34;3.21;87.79
69715;HTU21D;56981;53.532;49.398;2023-12-20T10:12:00;3.11;88.02
69715;HTU21D;56981;53.532;49.398;2023-12-20T10:14:26;3.09;88.58
69715;HTU21D;56981;53.532;49.398;2023-12-20T10:16:52;3.16;88.28
69715;HTU21D;56981;53.532;49.398;2023-12-20T10:19:20;3.19;88.22
69715;HTU21D;56981;53.532;49.398;2023-12-20T10:21:46;3.23;88.07
69715;HTU21D;56981;53.532;49.398;2023-12-20T10:24:19;3.21;87.63
69715;HTU21D;56981;53.532;49.398;2023-12-20T10:26:45;3.23;88.05
69715;HTU21D;56981;53.532;49.398;2023-12-20T10:29:11;3.30;87.83
69715;HTU21D;56981;53.532;49.398;2023-12-20T10:31:37;3.32;87.59
69715;HTU21D;56981;53.532;49.398;2023-12-20T10:34:25;3.24;88.11
69715;HTU21D;56981;53.532;49.398;2023-12-20T10:36:59;3.25;87.92
69715;HTU21D;56981;53.532;49.398;2023-12-20T10:39:26;3.25;87.89
69715;HTU21D;56981;53.532;49.398;2023-12-20T10:41:55;3.24;88.00
69715;HTU21D;56981;53.532;49.398;2023-12-20T10:44:22;3.28;87.84
69715;HTU21D;56981;53.532;49.398;2023-12-20T10:46:48;3.32;87.77
69715;HTU21D;56981;53.532;49.398;2023-12-20T10:49:17;3.29;87.91
69715;HTU21D;56981;53.532;49.398;2023-12-20T10:51:46;3.32;87.76
69715;HTU21D;56981;53.532;49.398;2023-12-20T10:54:17;3.32;87.86
69715;HTU21D;56981;53.532;49.398;2023-12-20T10:56:43;3.32;87.73
69715;HTU21D;56981;53.532;49.398;2023-12-20T10:59:11;3.36;87.84
69715;HTU21D;56981;53.532;49.398;2023-12-20T11:01:38;3.33;87.51
69715;HTU21D;56981;53.532;49.398;2023-12-20T11:04:19;3.26;88.04
69715;HTU21D;56981;53.532;49.398;2023-12-20T11:06:56;3.21;88.30
69715;HTU21D;56981;53.532;49.398;2023-12-20T11:09:29;3.28;88.05
69715;HTU21D;56981;53.532;49.398;2023-12-20T11:12:07;3.25;87.79
69715;HTU21D;56981;53.532;49.398;2023-12-20T11:17:12;3.28;87.77
69715;HTU21D;56981;53.532;49.398;2023-12-20T11:22:32;3.32;87.50
69715;HTU21D;56981;53.532;49.398;2023-12-20T11:25:07;3.23;87.81
69715;HTU21D;56981;53.532;49.398;2023-12-20T11:27:40;3.26;88.05
69715;HTU21D;56981;53.532;49.398;2023-12-20T11:30:07;3.28;87.90
69715;HTU21D;56981;53.532;49.398;2023-12-20T11:32:36;3.19;88.01
69715;HTU21D;56981;53.532;49.398;2023-12-20T11:37:37;3.17;88.08
69715;HTU21D;56981;53.532;49.398;2023-12-20T11:40:08;3.16;88.28
69715;HTU21D;56981;53.532;49.398;2023-12-20T11:42:41;3.09;88.25
69715;HTU21D;56981;53.532;49.398;2023-12-20T11:45:13;3.05;88.51
69715;HTU21D;56981;53.532;49.398;2023-12-20T11:47:46;3.04;88.80
69715;HTU21D;56981;53.532;49.398;2023-12-20T11:50:12;2.95;88.99
69715;HTU21D;56981;53.532;49.398;2023-12-20T11:52:38;2.95;89.05
69715;HTU21D;56981;53.532;49.398;2023-12-20T11:55:05;2.89;89.39
69715;HTU21D;56981;53.532;49.398;2023-12-20T11:57:32;2.87;89.63
69715;HTU21D;56981;53.532;49.398;2023-12-20T11:59:59;2.90;89.67
69715;HTU21D;56981;53.532;49.398;2023-12-20T12:02:25;2.87;89.45
69715;HTU21D;56981;53.532;49.398;2023-12-20T12:04:52;2.87;89.40
69715;HTU21D;56981;53.532;49.398;2023-12-20T12:07:19;2.85;89.61
69715;HTU21D;56981;53.532;49.398;2023-12-20T12:09:48;2.81;90.09
69715;HTU21D;56981;53.532;49.398;2023-12-20T12:12:17;2.82;89.75
69715;HTU21D;56981;53.532;49.398;2023-12-20T12:14:45;2.83;89.71
69715;HTU21D;56981;53.532;49.398;2023-12-20T12:17:13;2.79;89.66
69715;HTU21D;56981;53.532;49.398;2023-12-20T12:19:40;2.78;89.97
69715;HTU21D;56981;53.532;49.398;2023-12-20T12:22:14;2.74;90.22
69715;HTU21D;56981;53.532;49.398;2023-12-20T12:24:44;2.78;90.28
69715;HTU21D;56981;53.532;49.398;2023-12-20T12:27:12;2.78;89.92
69715;HTU21D;56981;53.532;49.398;2023-12-20T12:29:38;2.79;90.01
69715;HTU21D;56981;53.532;49.398;2023-12-20T12:32:06;2.76;89.92
69715;HTU21D;56981;53.532;49.398;2023-12-20T12:34:34;2.73;90.04
69715;HTU21D;56981;53.532;49.398;2023-12-20T12:37:01;2.71;90.17
69715;HTU21D;56981;53.532;49.398;2023-12-20T12:39:27;2.72;90.47
69715;HTU21D;56981;53.532;49.398;2023-12-20T12:41:56;2.71;90.34
69715;HTU21D;56981;53.532;49.398;2023-12-20T12:44:23;2.67;90.49
69715;HTU21D;56981;53.532;49.398;2023-12-20T12:46:51;2.71;90.37
69715;HTU21D;56981;53.532;49.398;2023-12-20T12:49:22;2.74;90.00
69715;HTU21D;56981;53.532;49.398;2023-12-20T12:51:48;2.71;90.42
69715;HTU21D;56981;53.532;49.398;2023-12-20T12:54:14;2.72;90.17
69715;HTU21D;56981;53.532;49.398;2023-12-20T12:56:43;2.74;90.22
69715;HTU21D;56981;53.532;49.398;2023-12-20T12:59:09;2.71;90.09
69715;HTU21D;56981;53.532;49.398;2023-12-20T13:01:35;2.72;90.31
69715;HTU21D;56981;53.532;49.398;2023-12-20T13:04:01;2.70;90.20
69715;HTU21D;56981;53.532;49.398;2023-12-20T13:06:29;2.68;90.44
69715;HTU21D;56981;53.532;49.398;2023-12-20T13:08:56;2.67;90.69
69715;HTU21D;56981;53.532;49.398;2023-12-20T13:11:22;2.64;90.86
69715;HTU21D;56981;53.532;49.398;2023-12-20T13:13:48;2.60;90.98
69715;HTU21D;56981;53.532;49.398;2023-12-20T13:16:15;2.61;90.81
69715;HTU21D;56981;53.532;49.398;2023-12-20T13:18:41;2.60;90.98
69715;HTU21D;56981;53.532;49.398;2023-12-20T13:21:08;2.59;91.42
69715;HTU21D;56981;53.532;49.398;2023-12-20T13:23:35;2.58;91.42
69715;HTU21D;56981;53.532;49.398;2023-12-20T13:26:02;2.64;91.56
69715;HTU21D;56981;53.532;49.398;2023-12-20T13:28:29;2.59;91.39
69715;HTU21D;56981;53.532;49.398;2023-12-20T13:30:55;2.58;91.66
69715;HTU21D;56981;53.532;49.398;2023-12-20T13:33:23;2.58;91.79
69715;HTU21D;56981;53.532;49.398;2023-12-20T13:35:49;2.57;91.82
69715;HTU21D;56981;53.532;49.398;2023-12-20T13:38:15;2.58;92.13
69715;HTU21D;56981;53.532;49.398;2023-12-20T13:40:42;2.56;92.11
69715;HTU21D;56981;53.532;49.398;2023-12-20T13:43:08;2.62;92.24
69715;HTU21D;56981;53.532;49.398;2023-12-20T13:45:36;2.61;92.13
69715;HTU21D;56981;53.532;49.398;2023-12-20T13:48:03;2.61;92.08
69715;HTU21D;56981;53.532;49.398;2023-12-20T13:50:29;2.59;92.44
69715;HTU21D;56981;53.532;49.398;2023-12-20T13:52:55;2.58;92.34
69715;HTU21D;56981;53.532;49.398;2023-12-20T13:55:21;2.57;92.43
69715;HTU21D;56981;53.532;49.398;2023-12-20T13:57:51;2.53;92.62
69715;HTU21D;56981;53.532;49.398;2023-12-20T14:00:17;2.54;93.04
69715;HTU21D;56981;53.532;49.398;2023-12-20T14:02:44;2.54;92.94
69715;HTU21D;56981;53.532;49.398;2023-12-20T14:05:12;2.57;93.03
69715;HTU21D;56981;53.532;49.398;2023-12-20T14:07:40;2.57;92.91
69715;HTU21D;56981;53.532;49.398;2023-12-20T14:10:06;2.52;92.83
69715;HTU21D;56981;53.532;49.398;2023-12-20T14:12:33;2.53;93.21
69715;HTU21D;56981;53.532;49.398;2023-12-20T14:15:02;2.54;93.07
69715;HTU21D;56981;53.532;49.398;2023-12-20T14:17:28;2.53;92.88
69715;HTU21D;56981;53.532;49.398;2023-12-20T14:19:56;2.50;93.12
69715;HTU21D;56981;53.532;49.398;2023-12-20T14:26:06;2.46;93.41
69715;HTU21D;56981;53.532;49.398;2023-12-20T14:28:33;2.46;93.18
69715;HTU21D;56981;53.532;49.398;2023-12-20T14:30:59;2.46;93.47
69715;HTU21D;56981;53.532;49.398;2023-12-20T14:33:25;2.50;93.31
69715;HTU21D;56981;53.532;49.398;2023-12-20T14:35:55;2.50;93.20
69715;HTU21D;56981;53.532;49.398;2023-12-20T14:38:21;2.50;93.38
69715;HTU21D;56981;53.532;49.398;2023-12-20T14:40:48;2.51;93.11
69715;HTU21D;56981;53.532;49.398;2023-12-20T14:43:14;2.49;93.11
69715;HTU21D;56981;53.532;49.398;2023-12-20T14:45:42;2.46;93.22
69715;HTU21D;56981;53.532;49.398;2023-12-20T14:48:08;2.46;93.28
69715;HTU21D;56981;53.532;49.398;2023-12-20T14:50:34;2.46;93.32
69715;HTU21D;56981;53.532;49.398;2023-12-20T14:53:02;2.49;93.03
69715;HTU21D;56981;53.532;49.398;2023-12-20T14:55:28;2.49;93.22
69715;HTU21D;56981;53.532;49.398;2023-12-20T14:57:55;2.51;93.19
69715;HTU21D;56981;53.532;49.398;2023-12-20T15:00:22;2.53;92.94
69715;HTU21D;56981;53.532;49.398;2023-12-20T15:02:48;2.52;92.69
69715;HTU21D;56981;53.532;49.398;2023-12-20T15:05:15;2.51;92.97
69715;HTU21D;56981;53.532;49.398;2023-12-20T15:07:43;2.51;92.94
69715;HTU21D;56981;53.532;49.398;2023-12-20T15:10:10;2.53;93.01
69715;HTU21D;56981;53.532;49.398;2023-12-20T15:12:36;2.53;92.85
69715;HTU21D;56981;53.532;49.398;2023-12-20T15:15:03;2.52;92.78
69715;HTU21D;56981;53.532;49.398;2023-12-20T15:17:30;2.52;92.80
69715;HTU21D;56981;53.532;49.398;2023-12-20T15:19:56;2.52;92.79
69715;HTU21D;56981;53.532;49.398;2023-12-20T15:22:22;2.50;92.91
69715;HTU21D;56981;53.532;49.398;2023-12-20T15:24:50;2.47;93.04